sensor_id;sensor_type;location;lat;lon;timestamp;P1;durP1;ratioP1;P2;durP2;ratioP2
5900;SDS011;2976;49.764;9.796;2023-08-20T00:00:09;8.47;;;7.60;;
5900;SDS011;2976;49.764;9.796;2023-08-20T00:02:37;10.13;;;7.37;;
5900;SDS011;2976;49.764;9.796;2023-08-20T00:05:04;10.83;;;8.00;;
5900;SDS011;2976;49.764;9.796;2023-08-20T00:10:27;9.10;;;6.90;;
5900;SDS011;2976;49.764;9.796;2023-08-20T00:12:53;9.97;;;7.20;;
5900;SDS011;2976;49.764;9.796;2023-08-20T00:15:18;13.40;;;8.13;;
5900;SDS011;2976;49.764;9.796;2023-08-20T00:17:44;8.93;;;7.60;;
5900;SDS011;2976;49.764;9.796;2023-08-20T00:20:10;8.57;;;7.30;;
5900;SDS011;2976;49.764;9.796;2023-08-20T00:22:42;8.73;;;7.83;;
5900;SDS011;2976;49.764;9.796;2023-08-20T00:25:10;10.47;;;8.13;;
5900;SDS011;2976;49.764;9.796;2023-08-20T00:27:40;13.90;;;8.50;;
5900;SDS011;2976;49.764;9.796;2023-08-20T00:30:06;10.43;;;7.60;;
5900;SDS011;2976;49.764;9.796;2023-08-20T00:32:33;11.90;;;9.13;;
5900;SDS011;2976;49.764;9.796;2023-08-20T00:34:59;11.00;;;8.77;;
5900;SDS011;2976;49.764;9.796;2023-08-20T00:37:25;14.27;;;9.43;;
5900;SDS011;2976;49.764;9.796;2023-08-20T00:39:50;17.90;;;10.03;;
5900;SDS011;2976;49.764;9.796;2023-08-20T00:42:16;12.80;;;9.20;;
5900;SDS011;2976;49.764;9.796;2023-08-20T00:44:42;11.20;;;9.13;;
5900;SDS011;2976;49.764;9.796;2023-08-20T00:47:09;12.43;;;9.10;;
5900;SDS011;2976;49.764;9.796;2023-08-20T00:49:35;10.37;;;9.43;;
5900;SDS011;2976;49.764;9.796;2023-08-20T00:52:02;11.73;;;9.00;;
5900;SDS011;2976;49.764;9.796;2023-08-20T00:54:29;11.00;;;9.07;;
5900;SDS011;2976;49.764;9.796;2023-08-20T00:56:56;11.73;;;9.30;;
5900;SDS011;2976;49.764;9.796;2023-08-20T00:59:24;17.63;;;9.90;;
5900;SDS011;2976;49.764;9.796;2023-08-20T01:01:49;14.97;;;10.30;;
5900;SDS011;2976;49.764;9.796;2023-08-20T01:04:15;12.53;;;8.60;;
5900;SDS011;2976;49.764;9.796;2023-08-20T01:06:46;20.03;;;9.10;;
5900;SDS011;2976;49.764;9.796;2023-08-20T01:11:49;10.73;;;8.93;;
5900;SDS011;2976;49.764;9.796;2023-08-20T01:14:20;10.33;;;8.97;;
5900;SDS011;2976;49.764;9.796;2023-08-20T01:16:46;9.20;;;8.17;;
5900;SDS011;2976;49.764;9.796;2023-08-20T01:19:13;11.37;;;8.87;;
5900;SDS011;2976;49.764;9.796;2023-08-20T01:30:02;16.77;;;9.87;;
5900;SDS011;2976;49.764;9.796;2023-08-20T01:32:28;15.63;;;10.40;;
5900;SDS011;2976;49.764;9.796;2023-08-20T01:34:54;12.07;;;10.37;;
5900;SDS011;2976;49.764;9.796;2023-08-20T01:37:21;13.60;;;10.50;;
5900;SDS011;2976;49.764;9.796;2023-08-20T01:39:47;13.43;;;9.70;;
5900;SDS011;2976;49.764;9.796;2023-08-20T01:42:12;8.83;;;7.57;;
5900;SDS011;2976;49.764;9.796;2023-08-20T01:44:38;11.40;;;8.57;;
5900;SDS011;2976;49.764;9.796;2023-08-20T01:47:03;11.70;;;10.03;;
5900;SDS011;2976;49.764;9.796;2023-08-20T01:49:29;10.57;;;9.10;;
5900;SDS011;2976;49.764;9.796;2023-08-20T01:51:55;10.73;;;9.43;;
5900;SDS011;2976;49.764;9.796;2023-08-20T01:54:20;10.17;;;9.07;;
5900;SDS011;2976;49.764;9.796;2023-08-20T01:56:46;11.00;;;9.90;;
5900;SDS011;2976;49.764;9.796;2023-08-20T01:59:11;11.43;;;9.80;;
5900;SDS011;2976;49.764;9.796;2023-08-20T02:01:37;16.80;;;10.17;;
5900;SDS011;2976;49.764;9.796;2023-08-20T02:04:03;12.73;;;10.67;;
5900;SDS011;2976;49.764;9.796;2023-08-20T02:06:28;10.83;;;9.67;;
5900;SDS011;2976;49.764;9.796;2023-08-20T02:08:54;10.60;;;8.10;;
5900;SDS011;2976;49.764;9.796;2023-08-20T02:11:19;9.60;;;8.40;;
5900;SDS011;2976;49.764;9.796;2023-08-20T02:13:45;10.37;;;8.00;;
5900;SDS011;2976;49.764;9.796;2023-08-20T02:16:11;11.70;;;8.10;;
5900;SDS011;2976;49.764;9.796;2023-08-20T02:18:36;10.50;;;8.50;;
5900;SDS011;2976;49.764;9.796;2023-08-20T02:21:02;14.43;;;8.90;;
5900;SDS011;2976;49.764;9.796;2023-08-20T02:23:28;9.53;;;8.50;;
5900;SDS011;2976;49.764;9.796;2023-08-20T02:25:53;12.83;;;8.73;;
5900;SDS011;2976;49.764;9.796;2023-08-20T02:28:19;11.53;;;10.07;;
5900;SDS011;2976;49.764;9.796;2023-08-20T02:30:45;13.20;;;9.73;;
5900;SDS011;2976;49.764;9.796;2023-08-20T02:33:11;16.80;;;9.73;;
5900;SDS011;2976;49.764;9.796;2023-08-20T02:35:38;17.07;;;10.60;;
5900;SDS011;2976;49.764;9.796;2023-08-20T02:38:04;15.73;;;10.73;;
5900;SDS011;2976;49.764;9.796;2023-08-20T02:40:30;18.90;;;12.17;;
5900;SDS011;2976;49.764;9.796;2023-08-20T02:42:56;11.40;;;10.20;;
5900;SDS011;2976;49.764;9.796;2023-08-20T02:45:21;14.20;;;9.80;;
5900;SDS011;2976;49.764;9.796;2023-08-20T02:47:47;10.77;;;9.67;;
5900;SDS011;2976;49.764;9.796;2023-08-20T02:50:13;13.53;;;9.87;;
5900;SDS011;2976;49.764;9.796;2023-08-20T02:52:39;11.63;;;10.47;;
5900;SDS011;2976;49.764;9.796;2023-08-20T02:55:05;13.50;;;11.17;;
5900;SDS011;2976;49.764;9.796;2023-08-20T02:57:31;12.20;;;10.90;;
5900;SDS011;2976;49.764;9.796;2023-08-20T02:59:57;12.33;;;10.50;;
5900;SDS011;2976;49.764;9.796;2023-08-20T03:02:22;14.80;;;10.80;;
5900;SDS011;2976;49.764;9.796;2023-08-20T03:04:48;11.73;;;10.63;;
5900;SDS011;2976;49.764;9.796;2023-08-20T03:07:14;12.47;;;11.17;;
5900;SDS011;2976;49.764;9.796;2023-08-20T03:09:39;15.40;;;10.50;;
5900;SDS011;2976;49.764;9.796;2023-08-20T03:12:05;21.40;;;11.97;;
5900;SDS011;2976;49.764;9.796;2023-08-20T03:14:31;15.20;;;11.83;;
5900;SDS011;2976;49.764;9.796;2023-08-20T03:16:56;20.87;;;10.37;;
5900;SDS011;2976;49.764;9.796;2023-08-20T03:19:22;16.43;;;10.47;;
5900;SDS011;2976;49.764;9.796;2023-08-20T03:21:47;11.80;;;10.67;;
5900;SDS011;2976;49.764;9.796;2023-08-20T03:24:13;12.00;;;10.33;;
5900;SDS011;2976;49.764;9.796;2023-08-20T03:26:38;14.43;;;13.00;;
5900;SDS011;2976;49.764;9.796;2023-08-20T03:29:04;22.17;;;12.63;;
5900;SDS011;2976;49.764;9.796;2023-08-20T03:31:29;16.00;;;12.27;;
5900;SDS011;2976;49.764;9.796;2023-08-20T03:33:55;15.90;;;11.20;;
5900;SDS011;2976;49.764;9.796;2023-08-20T03:36:21;13.50;;;11.17;;
5900;SDS011;2976;49.764;9.796;2023-08-20T03:38:46;16.37;;;11.33;;
5900;SDS011;2976;49.764;9.796;2023-08-20T03:41:12;16.77;;;12.50;;
5900;SDS011;2976;49.764;9.796;2023-08-20T03:43:37;15.60;;;11.53;;
5900;SDS011;2976;49.764;9.796;2023-08-20T03:46:03;16.80;;;12.60;;
5900;SDS011;2976;49.764;9.796;2023-08-20T03:48:28;16.30;;;12.13;;
5900;SDS011;2976;49.764;9.796;2023-08-20T03:50:54;18.60;;;12.50;;
5900;SDS011;2976;49.764;9.796;2023-08-20T03:53:21;21.80;;;13.20;;
5900;SDS011;2976;49.764;9.796;2023-08-20T03:55:49;15.20;;;11.47;;
5900;SDS011;2976;49.764;9.796;2023-08-20T03:58:15;14.57;;;12.17;;
5900;SDS011;2976;49.764;9.796;2023-08-20T04:00:41;20.93;;;12.50;;
5900;SDS011;2976;49.764;9.796;2023-08-20T04:03:07;17.33;;;12.20;;
5900;SDS011;2976;49.764;9.796;2023-08-20T04:05:36;16.13;;;13.37;;
5900;SDS011;2976;49.764;9.796;2023-08-20T04:08:02;18.03;;;11.33;;
5900;SDS011;2976;49.764;9.796;2023-08-20T04:10:29;20.73;;;14.33;;
5900;SDS011;2976;49.764;9.796;2023-08-20T04:12:54;15.70;;;13.70;;
5900;SDS011;2976;49.764;9.796;2023-08-20T04:15:20;23.50;;;14.57;;
5900;SDS011;2976;49.764;9.796;2023-08-20T04:17:46;21.90;;;14.20;;
5900;SDS011;2976;49.764;9.796;2023-08-20T04:20:12;16.40;;;13.83;;
5900;SDS011;2976;49.764;9.796;2023-08-20T04:22:37;25.00;;;16.47;;
5900;SDS011;2976;49.764;9.796;2023-08-20T04:25:03;24.83;;;16.60;;
5900;SDS011;2976;49.764;9.796;2023-08-20T04:27:29;22.40;;;15.27;;
5900;SDS011;2976;49.764;9.796;2023-08-20T04:29:55;19.97;;;15.73;;
5900;SDS011;2976;49.764;9.796;2023-08-20T04:32:21;24.77;;;16.40;;
5900;SDS011;2976;49.764;9.796;2023-08-20T04:34:47;22.50;;;15.37;;
5900;SDS011;2976;49.764;9.796;2023-08-20T04:37:14;17.90;;;15.63;;
5900;SDS011;2976;49.764;9.796;2023-08-20T04:39:40;19.80;;;15.60;;
5900;SDS011;2976;49.764;9.796;2023-08-20T04:42:05;17.50;;;14.40;;
5900;SDS011;2976;49.764;9.796;2023-08-20T04:44:31;14.63;;;12.57;;
5900;SDS011;2976;49.764;9.796;2023-08-20T04:46:57;18.40;;;14.20;;
5900;SDS011;2976;49.764;9.796;2023-08-20T04:49:22;16.90;;;14.10;;
5900;SDS011;2976;49.764;9.796;2023-08-20T04:51:51;21.07;;;14.53;;
5900;SDS011;2976;49.764;9.796;2023-08-20T04:54:16;26.00;;;15.67;;
5900;SDS011;2976;49.764;9.796;2023-08-20T04:56:42;22.30;;;14.73;;
5900;SDS011;2976;49.764;9.796;2023-08-20T04:59:07;23.20;;;15.60;;
5900;SDS011;2976;49.764;9.796;2023-08-20T05:01:33;17.17;;;14.23;;
5900;SDS011;2976;49.764;9.796;2023-08-20T05:03:58;23.03;;;14.13;;
5900;SDS011;2976;49.764;9.796;2023-08-20T05:06:24;14.40;;;12.50;;
5900;SDS011;2976;49.764;9.796;2023-08-20T05:08:50;24.30;;;13.10;;
5900;SDS011;2976;49.764;9.796;2023-08-20T05:11:15;15.23;;;12.90;;
5900;SDS011;2976;49.764;9.796;2023-08-20T05:13:41;15.17;;;12.90;;
5900;SDS011;2976;49.764;9.796;2023-08-20T05:16:06;16.10;;;14.40;;
5900;SDS011;2976;49.764;9.796;2023-08-20T05:18:32;15.93;;;14.23;;
5900;SDS011;2976;49.764;9.796;2023-08-20T05:20:57;16.90;;;13.23;;
5900;SDS011;2976;49.764;9.796;2023-08-20T05:23:23;16.30;;;13.40;;
5900;SDS011;2976;49.764;9.796;2023-08-20T05:25:48;17.53;;;11.53;;
5900;SDS011;2976;49.764;9.796;2023-08-20T05:28:14;13.73;;;11.80;;
5900;SDS011;2976;49.764;9.796;2023-08-20T05:30:40;12.83;;;11.53;;
5900;SDS011;2976;49.764;9.796;2023-08-20T05:33:05;19.10;;;13.60;;
5900;SDS011;2976;49.764;9.796;2023-08-20T05:35:31;16.37;;;12.40;;
5900;SDS011;2976;49.764;9.796;2023-08-20T05:37:56;23.30;;;13.77;;
5900;SDS011;2976;49.764;9.796;2023-08-20T05:40:22;16.27;;;11.77;;
5900;SDS011;2976;49.764;9.796;2023-08-20T05:42:47;17.63;;;11.43;;
5900;SDS011;2976;49.764;9.796;2023-08-20T05:45:13;28.83;;;13.27;;
5900;SDS011;2976;49.764;9.796;2023-08-20T05:47:39;15.70;;;12.03;;
5900;SDS011;2976;49.764;9.796;2023-08-20T05:50:04;14.30;;;10.87;;
5900;SDS011;2976;49.764;9.796;2023-08-20T05:52:30;11.63;;;10.23;;
5900;SDS011;2976;49.764;9.796;2023-08-20T05:54:56;15.33;;;10.50;;
5900;SDS011;2976;49.764;9.796;2023-08-20T05:57:21;14.70;;;11.20;;
5900;SDS011;2976;49.764;9.796;2023-08-20T05:59:47;12.90;;;9.70;;
5900;SDS011;2976;49.764;9.796;2023-08-20T06:02:16;11.37;;;8.63;;
5900;SDS011;2976;49.764;9.796;2023-08-20T06:04:43;11.60;;;8.30;;
5900;SDS011;2976;49.764;9.796;2023-08-20T06:07:09;9.93;;;7.57;;
5900;SDS011;2976;49.764;9.796;2023-08-20T06:09:35;11.10;;;8.70;;
5900;SDS011;2976;49.764;9.796;2023-08-20T06:12:00;13.77;;;7.30;;
5900;SDS011;2976;49.764;9.796;2023-08-20T06:14:26;8.50;;;7.50;;
5900;SDS011;2976;49.764;9.796;2023-08-20T06:16:51;10.90;;;6.70;;
5900;SDS011;2976;49.764;9.796;2023-08-20T06:19:17;8.80;;;7.37;;
5900;SDS011;2976;49.764;9.796;2023-08-20T06:21:42;7.07;;;6.37;;
5900;SDS011;2976;49.764;9.796;2023-08-20T06:24:08;8.30;;;6.70;;
5900;SDS011;2976;49.764;9.796;2023-08-20T06:26:34;8.23;;;6.40;;
5900;SDS011;2976;49.764;9.796;2023-08-20T06:28:59;6.40;;;5.80;;
5900;SDS011;2976;49.764;9.796;2023-08-20T06:31:25;16.70;;;6.40;;
5900;SDS011;2976;49.764;9.796;2023-08-20T06:33:50;12.13;;;6.77;;
5900;SDS011;2976;49.764;9.796;2023-08-20T06:36:16;9.90;;;6.00;;
5900;SDS011;2976;49.764;9.796;2023-08-20T06:38:41;11.77;;;7.10;;
5900;SDS011;2976;49.764;9.796;2023-08-20T06:41:07;7.33;;;6.47;;
5900;SDS011;2976;49.764;9.796;2023-08-20T06:43:32;9.53;;;6.63;;
5900;SDS011;2976;49.764;9.796;2023-08-20T06:45:58;7.77;;;6.97;;
5900;SDS011;2976;49.764;9.796;2023-08-20T06:48:24;15.63;;;7.03;;
5900;SDS011;2976;49.764;9.796;2023-08-20T06:50:50;7.07;;;6.27;;
5900;SDS011;2976;49.764;9.796;2023-08-20T06:53:15;11.87;;;6.53;;
5900;SDS011;2976;49.764;9.796;2023-08-20T06:55:41;8.50;;;6.87;;
5900;SDS011;2976;49.764;9.796;2023-08-20T06:58:06;11.87;;;6.70;;
5900;SDS011;2976;49.764;9.796;2023-08-20T07:00:32;11.80;;;6.60;;
5900;SDS011;2976;49.764;9.796;2023-08-20T07:02:58;7.43;;;6.53;;
5900;SDS011;2976;49.764;9.796;2023-08-20T07:05:23;7.43;;;6.53;;
5900;SDS011;2976;49.764;9.796;2023-08-20T07:07:49;7.80;;;7.00;;
5900;SDS011;2976;49.764;9.796;2023-08-20T07:10:14;10.60;;;5.67;;
5900;SDS011;2976;49.764;9.796;2023-08-20T07:12:40;6.00;;;5.47;;
5900;SDS011;2976;49.764;9.796;2023-08-20T07:15:06;6.50;;;5.57;;
5900;SDS011;2976;49.764;9.796;2023-08-20T07:17:32;8.40;;;6.10;;
5900;SDS011;2976;49.764;9.796;2023-08-20T07:19:57;8.30;;;6.50;;
5900;SDS011;2976;49.764;9.796;2023-08-20T07:22:23;6.30;;;5.43;;
5900;SDS011;2976;49.764;9.796;2023-08-20T07:24:48;10.20;;;5.53;;
5900;SDS011;2976;49.764;9.796;2023-08-20T07:27:14;6.90;;;5.00;;
5900;SDS011;2976;49.764;9.796;2023-08-20T07:29:40;9.70;;;5.30;;
5900;SDS011;2976;49.764;9.796;2023-08-20T07:32:06;6.53;;;5.87;;
5900;SDS011;2976;49.764;9.796;2023-08-20T07:34:32;6.83;;;5.43;;
5900;SDS011;2976;49.764;9.796;2023-08-20T07:36:59;5.93;;;5.07;;
5900;SDS011;2976;49.764;9.796;2023-08-20T07:39:25;12.37;;;6.43;;
5900;SDS011;2976;49.764;9.796;2023-08-20T07:41:50;6.03;;;5.40;;
5900;SDS011;2976;49.764;9.796;2023-08-20T07:44:16;9.63;;;5.00;;
5900;SDS011;2976;49.764;9.796;2023-08-20T07:46:41;7.30;;;5.50;;
5900;SDS011;2976;49.764;9.796;2023-08-20T07:49:07;6.77;;;6.07;;
5900;SDS011;2976;49.764;9.796;2023-08-20T07:51:33;6.73;;;6.03;;
5900;SDS011;2976;49.764;9.796;2023-08-20T07:53:59;8.20;;;5.90;;
5900;SDS011;2976;49.764;9.796;2023-08-20T07:56:25;7.00;;;6.03;;
5900;SDS011;2976;49.764;9.796;2023-08-20T07:58:51;8.47;;;5.73;;
5900;SDS011;2976;49.764;9.796;2023-08-20T08:01:17;8.57;;;5.87;;
5900;SDS011;2976;49.764;9.796;2023-08-20T08:03:42;6.53;;;5.53;;
5900;SDS011;2976;49.764;9.796;2023-08-20T08:06:08;12.30;;;6.40;;
5900;SDS011;2976;49.764;9.796;2023-08-20T08:08:34;7.97;;;4.90;;
5900;SDS011;2976;49.764;9.796;2023-08-20T08:10:59;11.03;;;5.70;;
5900;SDS011;2976;49.764;9.796;2023-08-20T08:13:25;8.03;;;4.90;;
5900;SDS011;2976;49.764;9.796;2023-08-20T08:15:51;7.60;;;4.90;;
5900;SDS011;2976;49.764;9.796;2023-08-20T08:18:18;6.80;;;6.10;;
5900;SDS011;2976;49.764;9.796;2023-08-20T08:20:44;7.60;;;5.60;;
5900;SDS011;2976;49.764;9.796;2023-08-20T08:23:10;15.83;;;5.63;;
5900;SDS011;2976;49.764;9.796;2023-08-20T08:25:35;7.10;;;5.43;;
5900;SDS011;2976;49.764;9.796;2023-08-20T08:28:02;5.87;;;5.23;;
5900;SDS011;2976;49.764;9.796;2023-08-20T08:30:28;15.57;;;5.93;;
5900;SDS011;2976;49.764;9.796;2023-08-20T08:32:54;5.70;;;5.07;;
5900;SDS011;2976;49.764;9.796;2023-08-20T08:35:20;6.27;;;5.63;;
5900;SDS011;2976;49.764;9.796;2023-08-20T08:37:45;5.90;;;5.27;;
5900;SDS011;2976;49.764;9.796;2023-08-20T08:40:11;9.97;;;5.27;;
5900;SDS011;2976;49.764;9.796;2023-08-20T08:42:37;6.53;;;5.70;;
5900;SDS011;2976;49.764;9.796;2023-08-20T08:45:05;5.87;;;5.13;;
5900;SDS011;2976;49.764;9.796;2023-08-20T08:47:31;9.73;;;5.60;;
5900;SDS011;2976;49.764;9.796;2023-08-20T08:49:58;14.23;;;5.87;;
5900;SDS011;2976;49.764;9.796;2023-08-20T08:52:24;5.77;;;5.03;;
5900;SDS011;2976;49.764;9.796;2023-08-20T08:54:50;8.13;;;4.90;;
5900;SDS011;2976;49.764;9.796;2023-08-20T08:57:17;6.10;;;5.37;;
5900;SDS011;2976;49.764;9.796;2023-08-20T08:59:42;5.53;;;4.77;;
5900;SDS011;2976;49.764;9.796;2023-08-20T09:02:08;5.70;;;4.90;;
5900;SDS011;2976;49.764;9.796;2023-08-20T09:04:38;7.30;;;5.60;;
5900;SDS011;2976;49.764;9.796;2023-08-20T09:07:05;8.00;;;4.93;;
5900;SDS011;2976;49.764;9.796;2023-08-20T09:09:36;8.90;;;5.57;;
5900;SDS011;2976;49.764;9.796;2023-08-20T09:12:08;8.30;;;5.60;;
5900;SDS011;2976;49.764;9.796;2023-08-20T09:14:43;8.63;;;6.00;;
5900;SDS011;2976;49.764;9.796;2023-08-20T09:17:14;11.70;;;5.70;;
5900;SDS011;2976;49.764;9.796;2023-08-20T09:19:41;7.87;;;5.80;;
5900;SDS011;2976;49.764;9.796;2023-08-20T09:22:10;8.33;;;5.87;;
5900;SDS011;2976;49.764;9.796;2023-08-20T09:24:40;6.73;;;6.13;;
5900;SDS011;2976;49.764;9.796;2023-08-20T09:27:08;7.40;;;5.33;;
5900;SDS011;2976;49.764;9.796;2023-08-20T09:29:45;6.30;;;5.80;;
5900;SDS011;2976;49.764;9.796;2023-08-20T09:32:29;10.43;;;5.63;;
5900;SDS011;2976;49.764;9.796;2023-08-20T09:34:55;9.00;;;5.57;;
5900;SDS011;2976;49.764;9.796;2023-08-20T09:37:21;8.83;;;5.87;;
5900;SDS011;2976;49.764;9.796;2023-08-20T09:39:48;9.47;;;5.30;;
5900;SDS011;2976;49.764;9.796;2023-08-20T09:42:14;5.87;;;5.47;;
5900;SDS011;2976;49.764;9.796;2023-08-20T09:44:44;9.93;;;5.70;;
5900;SDS011;2976;49.764;9.796;2023-08-20T09:47:12;8.90;;;6.37;;
5900;SDS011;2976;49.764;9.796;2023-08-20T09:49:41;7.10;;;5.40;;
5900;SDS011;2976;49.764;9.796;2023-08-20T09:52:10;7.83;;;6.37;;
5900;SDS011;2976;49.764;9.796;2023-08-20T09:54:50;12.83;;;5.57;;
5900;SDS011;2976;49.764;9.796;2023-08-20T09:59:58;6.33;;;5.73;;
5900;SDS011;2976;49.764;9.796;2023-08-20T10:02:25;8.20;;;5.73;;
5900;SDS011;2976;49.764;9.796;2023-08-20T10:04:51;7.40;;;5.17;;
5900;SDS011;2976;49.764;9.796;2023-08-20T10:07:17;6.53;;;5.70;;
5900;SDS011;2976;49.764;9.796;2023-08-20T10:09:43;7.70;;;5.50;;
5900;SDS011;2976;49.764;9.796;2023-08-20T10:12:14;7.13;;;5.40;;
5900;SDS011;2976;49.764;9.796;2023-08-20T10:14:40;9.10;;;5.40;;
5900;SDS011;2976;49.764;9.796;2023-08-20T10:17:07;8.30;;;5.90;;
5900;SDS011;2976;49.764;9.796;2023-08-20T10:19:34;10.20;;;6.17;;
5900;SDS011;2976;49.764;9.796;2023-08-20T10:22:02;6.53;;;5.80;;
5900;SDS011;2976;49.764;9.796;2023-08-20T10:24:28;7.30;;;5.47;;
5900;SDS011;2976;49.764;9.796;2023-08-20T10:27:09;7.00;;;6.23;;
5900;SDS011;2976;49.764;9.796;2023-08-20T10:32:14;6.77;;;5.70;;
5900;SDS011;2976;49.764;9.796;2023-08-20T10:34:43;6.90;;;5.40;;
5900;SDS011;2976;49.764;9.796;2023-08-20T10:37:15;8.50;;;5.20;;
5900;SDS011;2976;49.764;9.796;2023-08-20T10:39:53;13.20;;;5.60;;
5900;SDS011;2976;49.764;9.796;2023-08-20T10:45:05;10.93;;;5.20;;
5900;SDS011;2976;49.764;9.796;2023-08-20T10:47:46;10.00;;;5.20;;
5900;SDS011;2976;49.764;9.796;2023-08-20T10:50:18;6.30;;;5.50;;
5900;SDS011;2976;49.764;9.796;2023-08-20T10:52:50;6.77;;;5.93;;
5900;SDS011;2976;49.764;9.796;2023-08-20T10:55:23;7.90;;;5.70;;
5900;SDS011;2976;49.764;9.796;2023-08-20T10:57:55;6.93;;;5.90;;
5900;SDS011;2976;49.764;9.796;2023-08-20T11:00:22;8.83;;;6.23;;
5900;SDS011;2976;49.764;9.796;2023-08-20T11:02:49;15.20;;;5.60;;
5900;SDS011;2976;49.764;9.796;2023-08-20T11:05:18;9.53;;;5.37;;
5900;SDS011;2976;49.764;9.796;2023-08-20T11:07:46;11.30;;;5.37;;
5900;SDS011;2976;49.764;9.796;2023-08-20T11:10:13;5.77;;;5.13;;
5900;SDS011;2976;49.764;9.796;2023-08-20T11:12:40;6.77;;;5.40;;
5900;SDS011;2976;49.764;9.796;2023-08-20T11:15:07;7.90;;;5.40;;
5900;SDS011;2976;49.764;9.796;2023-08-20T11:17:34;9.03;;;5.17;;
5900;SDS011;2976;49.764;9.796;2023-08-20T11:20:00;6.27;;;5.63;;
5900;SDS011;2976;49.764;9.796;2023-08-20T11:22:26;11.67;;;5.80;;
5900;SDS011;2976;49.764;9.796;2023-08-20T11:24:52;7.13;;;5.43;;
5900;SDS011;2976;49.764;9.796;2023-08-20T11:27:18;8.00;;;5.10;;
5900;SDS011;2976;49.764;9.796;2023-08-20T11:29:43;6.33;;;5.13;;
5900;SDS011;2976;49.764;9.796;2023-08-20T11:32:09;5.40;;;5.00;;
5900;SDS011;2976;49.764;9.796;2023-08-20T11:34:36;9.80;;;5.50;;
5900;SDS011;2976;49.764;9.796;2023-08-20T11:37:03;6.30;;;5.67;;
5900;SDS011;2976;49.764;9.796;2023-08-20T11:39:29;7.00;;;5.53;;
5900;SDS011;2976;49.764;9.796;2023-08-20T11:41:55;18.27;;;5.67;;
5900;SDS011;2976;49.764;9.796;2023-08-20T11:44:22;6.23;;;5.73;;
5900;SDS011;2976;49.764;9.796;2023-08-20T11:46:48;12.17;;;5.77;;
5900;SDS011;2976;49.764;9.796;2023-08-20T11:49:14;7.70;;;5.77;;
5900;SDS011;2976;49.764;9.796;2023-08-20T11:51:44;7.63;;;5.10;;
5900;SDS011;2976;49.764;9.796;2023-08-20T11:54:15;5.60;;;4.80;;
5900;SDS011;2976;49.764;9.796;2023-08-20T11:56:48;8.07;;;5.10;;
5900;SDS011;2976;49.764;9.796;2023-08-20T11:59:15;8.93;;;5.20;;
5900;SDS011;2976;49.764;9.796;2023-08-20T12:01:42;11.03;;;4.67;;
5900;SDS011;2976;49.764;9.796;2023-08-20T12:04:08;6.30;;;4.90;;
5900;SDS011;2976;49.764;9.796;2023-08-20T12:06:36;5.47;;;4.57;;
5900;SDS011;2976;49.764;9.796;2023-08-20T12:09:17;5.40;;;4.80;;
5900;SDS011;2976;49.764;9.796;2023-08-20T12:11:51;5.90;;;4.70;;
5900;SDS011;2976;49.764;9.796;2023-08-20T12:14:17;5.40;;;5.00;;
5900;SDS011;2976;49.764;9.796;2023-08-20T12:16:43;7.90;;;5.50;;
5900;SDS011;2976;49.764;9.796;2023-08-20T12:19:09;8.17;;;5.30;;
5900;SDS011;2976;49.764;9.796;2023-08-20T12:21:34;15.97;;;6.17;;
5900;SDS011;2976;49.764;9.796;2023-08-20T12:24:00;8.47;;;5.40;;
5900;SDS011;2976;49.764;9.796;2023-08-20T12:26:26;6.73;;;5.27;;
5900;SDS011;2976;49.764;9.796;2023-08-20T12:28:51;5.10;;;4.60;;
5900;SDS011;2976;49.764;9.796;2023-08-20T12:31:17;5.20;;;4.53;;
5900;SDS011;2976;49.764;9.796;2023-08-20T12:33:42;8.00;;;5.00;;
5900;SDS011;2976;49.764;9.796;2023-08-20T12:36:08;14.37;;;4.40;;
5900;SDS011;2976;49.764;9.796;2023-08-20T12:38:33;6.57;;;5.50;;
5900;SDS011;2976;49.764;9.796;2023-08-20T12:41:00;8.10;;;5.80;;
5900;SDS011;2976;49.764;9.796;2023-08-20T12:43:26;7.00;;;4.90;;
5900;SDS011;2976;49.764;9.796;2023-08-20T12:45:52;10.67;;;4.80;;
5900;SDS011;2976;49.764;9.796;2023-08-20T12:48:17;6.30;;;5.03;;
5900;SDS011;2976;49.764;9.796;2023-08-20T12:50:43;12.57;;;5.03;;
5900;SDS011;2976;49.764;9.796;2023-08-20T12:53:08;5.50;;;4.83;;
5900;SDS011;2976;49.764;9.796;2023-08-20T12:55:34;7.83;;;4.80;;
5900;SDS011;2976;49.764;9.796;2023-08-20T12:57:59;6.77;;;4.70;;
5900;SDS011;2976;49.764;9.796;2023-08-20T13:00:25;6.87;;;4.93;;
5900;SDS011;2976;49.764;9.796;2023-08-20T13:02:54;5.27;;;4.77;;
5900;SDS011;2976;49.764;9.796;2023-08-20T13:05:24;13.17;;;5.60;;
5900;SDS011;2976;49.764;9.796;2023-08-20T13:07:50;6.33;;;4.40;;
5900;SDS011;2976;49.764;9.796;2023-08-20T13:10:17;4.67;;;4.23;;
5900;SDS011;2976;49.764;9.796;2023-08-20T13:12:47;7.37;;;5.50;;
5900;SDS011;2976;49.764;9.796;2023-08-20T13:15:18;8.53;;;4.47;;
5900;SDS011;2976;49.764;9.796;2023-08-20T13:17:48;6.80;;;4.93;;
5900;SDS011;2976;49.764;9.796;2023-08-20T13:20:15;6.13;;;5.37;;
5900;SDS011;2976;49.764;9.796;2023-08-20T13:22:45;4.70;;;4.40;;
5900;SDS011;2976;49.764;9.796;2023-08-20T13:25:11;10.40;;;5.00;;
5900;SDS011;2976;49.764;9.796;2023-08-20T13:27:37;5.63;;;4.80;;
5900;SDS011;2976;49.764;9.796;2023-08-20T13:30:02;4.93;;;4.53;;
5900;SDS011;2976;49.764;9.796;2023-08-20T13:32:28;7.60;;;4.87;;
5900;SDS011;2976;49.764;9.796;2023-08-20T13:34:54;7.00;;;4.73;;
5900;SDS011;2976;49.764;9.796;2023-08-20T13:37:20;5.27;;;4.53;;
5900;SDS011;2976;49.764;9.796;2023-08-20T13:39:45;7.53;;;5.17;;
5900;SDS011;2976;49.764;9.796;2023-08-20T13:42:11;15.47;;;5.10;;
5900;SDS011;2976;49.764;9.796;2023-08-20T13:44:36;5.07;;;4.40;;
5900;SDS011;2976;49.764;9.796;2023-08-20T13:47:02;8.90;;;4.50;;
5900;SDS011;2976;49.764;9.796;2023-08-20T13:49:27;6.97;;;4.47;;
5900;SDS011;2976;49.764;9.796;2023-08-20T13:51:54;7.30;;;4.93;;
5900;SDS011;2976;49.764;9.796;2023-08-20T13:54:19;9.73;;;4.83;;
5900;SDS011;2976;49.764;9.796;2023-08-20T13:56:45;7.33;;;4.37;;
5900;SDS011;2976;49.764;9.796;2023-08-20T13:59:10;8.70;;;4.70;;
5900;SDS011;2976;49.764;9.796;2023-08-20T14:01:36;4.93;;;4.27;;
5900;SDS011;2976;49.764;9.796;2023-08-20T14:04:02;9.43;;;5.53;;
5900;SDS011;2976;49.764;9.796;2023-08-20T14:06:28;8.10;;;4.90;;
5900;SDS011;2976;49.764;9.796;2023-08-20T14:08:54;8.57;;;4.80;;
5900;SDS011;2976;49.764;9.796;2023-08-20T14:11:19;8.90;;;5.03;;
5900;SDS011;2976;49.764;9.796;2023-08-20T14:13:45;7.40;;;5.33;;
5900;SDS011;2976;49.764;9.796;2023-08-20T14:16:12;8.80;;;5.10;;
5900;SDS011;2976;49.764;9.796;2023-08-20T14:18:37;5.30;;;4.83;;
5900;SDS011;2976;49.764;9.796;2023-08-20T14:21:03;8.30;;;5.20;;
5900;SDS011;2976;49.764;9.796;2023-08-20T14:23:28;6.43;;;5.20;;
5900;SDS011;2976;49.764;9.796;2023-08-20T14:25:54;6.73;;;4.80;;
5900;SDS011;2976;49.764;9.796;2023-08-20T14:28:20;4.60;;;4.20;;
5900;SDS011;2976;49.764;9.796;2023-08-20T14:30:46;6.00;;;4.17;;
5900;SDS011;2976;49.764;9.796;2023-08-20T14:33:14;6.07;;;4.37;;
5900;SDS011;2976;49.764;9.796;2023-08-20T14:35:40;8.90;;;4.30;;
5900;SDS011;2976;49.764;9.796;2023-08-20T14:38:05;9.40;;;4.70;;
5900;SDS011;2976;49.764;9.796;2023-08-20T14:40:36;11.80;;;4.80;;
5900;SDS011;2976;49.764;9.796;2023-08-20T14:43:03;12.03;;;4.67;;
5900;SDS011;2976;49.764;9.796;2023-08-20T14:45:28;9.27;;;4.10;;
5900;SDS011;2976;49.764;9.796;2023-08-20T14:47:54;5.50;;;3.97;;
5900;SDS011;2976;49.764;9.796;2023-08-20T14:50:19;12.90;;;4.97;;
5900;SDS011;2976;49.764;9.796;2023-08-20T14:52:45;6.67;;;4.00;;
5900;SDS011;2976;49.764;9.796;2023-08-20T14:55:16;4.47;;;3.90;;
5900;SDS011;2976;49.764;9.796;2023-08-20T14:57:45;6.60;;;4.73;;
5900;SDS011;2976;49.764;9.796;2023-08-20T15:00:12;5.87;;;4.50;;
5900;SDS011;2976;49.764;9.796;2023-08-20T15:02:47;15.43;;;4.83;;
5900;SDS011;2976;49.764;9.796;2023-08-20T15:05:12;4.77;;;4.00;;
5900;SDS011;2976;49.764;9.796;2023-08-20T15:07:38;6.17;;;4.27;;
5900;SDS011;2976;49.764;9.796;2023-08-20T15:10:05;5.33;;;3.87;;
5900;SDS011;2976;49.764;9.796;2023-08-20T15:12:34;5.50;;;4.33;;
5900;SDS011;2976;49.764;9.796;2023-08-20T15:15:01;8.93;;;3.87;;
5900;SDS011;2976;49.764;9.796;2023-08-20T15:17:31;10.53;;;4.33;;
5900;SDS011;2976;49.764;9.796;2023-08-20T15:19:57;4.73;;;4.23;;
5900;SDS011;2976;49.764;9.796;2023-08-20T15:22:23;4.93;;;4.43;;